Oostwold Airport

METAR EDWE TAF EHGG
2 °C
°C
-
°C
20m
Age
18:39:37
LT
17:39
UTC
0 ft

1,000

2,000

3,000

4,000

5,000

OVC 1,900
MVFR
<?= Yii::t('app', 'Wind direction') ?> <?= Yii::t('app', 'of'); ?>
020°
08:23
Sunrise
87%
Humidity
Wind shear
Closed/Snow
RWY visual range
RWY condition
Vert. visibility
Min. visibility
CAVOK
Trend
Correction
Special report
1029 hPa
QNH
METAR EDWE 271720Z AUTO 02005KT 9999 // OVC019/// 02/M00 Q1029
Overcast
4 kt
4 kt
18:00
MVFR
7 kt
19:00
MVFR
7 kt
20:00
MVFR
7 kt
21:00
MVFR
7 kt
22:00
MVFR
7 kt
23:00
MVFR
7 kt
00:00
LIFR
7 kt
10 km+
Visibility
1,900 ft
Ceiling
5 kt
Wind
metar-taf.com/EHOW

Metar-Taf.com

Visual decoder

We and third parties follow your internet behavior on our website with cookies. If you continue, we assume you agree with our cookie policy.